createdAt,value
2024-05-09T00:01:20.501Z,19.27
2024-05-09T00:03:50.220Z,15.77
2024-05-09T00:06:22.461Z,17.40
2024-05-09T00:08:52.083Z,18.47
2024-05-09T00:11:23.111Z,18.30
2024-05-09T00:13:52.844Z,17.27
2024-05-09T00:16:22.442Z,19.23
2024-05-09T00:18:52.248Z,19.03
2024-05-09T00:21:24.547Z,18.33
2024-05-09T00:23:54.376Z,19.50
2024-05-09T00:26:23.984Z,16.20
2024-05-09T00:28:53.811Z,15.60
2024-05-09T00:31:23.487Z,16.20
2024-05-09T00:33:55.701Z,18.03
2024-05-09T00:36:27.988Z,20.37
2024-05-09T00:39:00.669Z,21.10
2024-05-09T00:41:30.275Z,16.10
2024-05-09T00:44:00.003Z,16.00
2024-05-09T00:46:29.735Z,18.70
2024-05-09T00:48:59.935Z,20.70
2024-05-09T00:51:32.447Z,19.47
2024-05-09T00:54:02.370Z,18.58
2024-05-09T00:56:32.234Z,18.63
2024-05-09T00:59:02.033Z,16.50
2024-05-09T01:01:34.186Z,18.40
2024-05-09T01:04:04.329Z,15.80
2024-05-09T01:06:36.600Z,18.80
2024-05-09T01:09:06.543Z,21.10
2024-05-09T01:11:38.728Z,22.10
2024-05-09T01:14:08.692Z,19.20
2024-05-09T01:16:38.400Z,21.60
2024-05-09T01:19:14.549Z,19.10
2024-05-09T01:21:46.927Z,17.00
2024-05-09T01:24:19.166Z,16.17
2024-05-09T01:26:48.687Z,16.73
2024-05-09T01:29:18.315Z,17.60
2024-05-09T01:31:48.692Z,18.70
2024-05-09T01:34:18.425Z,22.50
2024-05-09T01:36:47.963Z,14.50
2024-05-09T01:39:20.144Z,16.43
2024-05-09T01:41:49.690Z,15.90
2024-05-09T01:44:19.301Z,18.27
2024-05-09T01:46:48.960Z,16.52
2024-05-09T01:49:18.765Z,19.65
2024-05-09T01:51:48.460Z,17.47
2024-05-09T01:54:20.726Z,18.60
2024-05-09T01:56:50.267Z,19.50
2024-05-09T01:59:19.946Z,17.13
2024-05-09T02:01:56.696Z,17.83
2024-05-09T02:04:27.610Z,16.90
2024-05-09T02:06:57.472Z,15.30
2024-05-09T02:09:29.805Z,16.55
2024-05-09T02:11:59.524Z,19.15
2024-05-09T02:14:29.225Z,20.95
2024-05-09T02:16:59.017Z,19.05
2024-05-09T02:19:28.877Z,19.20
2024-05-09T02:21:58.543Z,20.77
2024-05-09T02:24:30.910Z,18.38
2024-05-09T02:27:00.622Z,18.73
2024-05-09T02:29:30.430Z,17.10
2024-05-09T02:32:00.213Z,18.30
2024-05-09T02:34:27.237Z,19.15
2024-05-09T02:36:59.971Z,18.83
2024-05-09T02:39:29.503Z,21.05
2024-05-09T02:41:59.030Z,17.70
2024-05-09T02:44:25.977Z,19.70
2024-05-09T02:46:55.682Z,18.80
2024-05-09T02:49:22.832Z,22.73
2024-05-09T02:51:52.331Z,20.58
2024-05-09T02:54:19.245Z,18.00
2024-05-09T02:56:51.740Z,16.80
2024-05-09T02:59:18.780Z,18.10
2024-05-09T03:01:48.459Z,20.67
2024-05-09T03:04:15.585Z,18.05
2024-05-09T03:06:45.243Z,20.98
2024-05-09T03:09:12.272Z,18.40
2024-05-09T03:11:42.038Z,19.88
2024-05-09T03:14:16.648Z,19.35
2024-05-09T03:16:46.525Z,17.30
2024-05-09T03:19:13.883Z,19.80
2024-05-09T03:21:43.604Z,21.17
2024-05-09T03:24:11.386Z,20.90
2024-05-09T03:26:41.019Z,22.33
2024-05-09T03:29:08.069Z,20.80
2024-05-09T03:31:41.563Z,19.25
2024-05-09T03:34:08.655Z,20.30
2024-05-09T03:36:38.344Z,19.05
2024-05-09T03:39:07.962Z,28.58
2024-05-09T03:41:37.561Z,22.20
2024-05-09T03:44:07.475Z,21.35
2024-05-09T03:46:43.405Z,23.15
2024-05-09T03:49:10.524Z,22.75
2024-05-09T03:51:40.414Z,22.45
2024-05-09T03:54:07.362Z,21.70
2024-05-09T03:56:38.056Z,20.67
2024-05-09T03:59:05.149Z,22.85
2024-05-09T04:01:34.780Z,20.05
2024-05-09T04:04:04.763Z,20.58
2024-05-09T04:06:34.353Z,18.42
2024-05-09T04:09:01.757Z,23.55
2024-05-09T04:11:31.461Z,20.83
2024-05-09T04:13:58.714Z,22.67
2024-05-09T04:16:28.349Z,20.20
2024-05-09T04:18:55.440Z,18.33
2024-05-09T04:21:27.623Z,19.55
2024-05-09T04:23:54.542Z,19.45
2024-05-09T04:26:24.453Z,19.33
2024-05-09T04:28:51.515Z,19.20
2024-05-09T04:31:21.073Z,21.25
2024-05-09T04:33:48.132Z,19.88
2024-05-09T04:36:17.829Z,23.38
2024-05-09T04:38:47.558Z,19.15
2024-05-09T04:41:17.312Z,19.83
2024-05-09T04:43:44.408Z,18.63
2024-05-09T04:46:14.244Z,20.27
2024-05-09T04:48:41.257Z,18.48
2024-05-09T04:51:10.859Z,20.40
2024-05-09T04:53:38.056Z,20.25
2024-05-09T04:56:11.243Z,20.80
2024-05-09T04:58:38.233Z,19.25
2024-05-09T05:01:07.917Z,19.17
2024-05-09T05:03:35.029Z,20.70
2024-05-09T05:06:04.721Z,19.52
2024-05-09T05:08:31.843Z,19.25
2024-05-09T05:11:01.716Z,21.52
2024-05-09T05:13:33.850Z,21.10
2024-05-09T05:16:03.567Z,20.60
2024-05-09T05:18:30.728Z,21.67
2024-05-09T05:21:01.062Z,21.52
2024-05-09T05:23:28.926Z,25.45
2024-05-09T05:25:58.722Z,22.80
2024-05-09T05:28:26.074Z,25.25
2024-05-09T05:30:58.299Z,26.40
2024-05-09T05:33:28.156Z,30.13
2024-05-09T05:35:56.144Z,30.38
2024-05-09T05:38:28.217Z,30.42
2024-05-09T05:40:56.082Z,28.48
2024-05-09T05:43:26.065Z,31.48
2024-05-09T05:45:55.810Z,27.38
2024-05-09T05:48:27.842Z,31.38
2024-05-09T05:50:54.910Z,31.10
2024-05-09T05:53:25.725Z,33.60
2024-05-09T05:55:53.027Z,32.40
2024-05-09T05:58:22.995Z,32.72
2024-05-09T06:00:53.149Z,36.93
2024-05-09T06:03:25.583Z,32.10
2024-05-09T06:05:52.708Z,35.83
2024-05-09T06:08:23.061Z,33.03
2024-05-09T06:10:51.028Z,31.30
2024-05-09T06:13:21.267Z,36.27
2024-05-09T06:15:48.288Z,34.90
2024-05-09T06:18:18.601Z,33.57
2024-05-09T06:20:48.430Z,37.60
2024-05-09T06:23:18.501Z,29.67
2024-05-09T06:25:45.697Z,29.07
2024-05-09T06:28:15.626Z,29.90
2024-05-09T06:30:43.385Z,32.97
2024-05-09T06:33:16.155Z,29.80
2024-05-09T06:35:47.003Z,27.73
2024-05-09T06:38:19.573Z,28.60
2024-05-09T06:40:46.821Z,28.13
2024-05-09T06:43:19.366Z,29.07
2024-05-09T06:45:48.179Z,26.97
2024-05-09T06:48:21.431Z,29.50
2024-05-09T06:50:49.172Z,22.03
2024-05-09T06:53:24.722Z,32.87
2024-05-09T06:55:51.889Z,24.10
2024-05-09T06:58:21.632Z,24.70
2024-05-09T07:00:49.021Z,20.70
2024-05-09T07:03:19.641Z,21.53
2024-05-09T07:05:49.083Z,20.17
2024-05-09T07:08:22.021Z,23.43
2024-05-09T07:10:49.385Z,18.40
2024-05-09T07:13:19.302Z,20.97
2024-05-09T07:15:46.361Z,19.87
2024-05-09T07:18:20.075Z,17.97
2024-05-09T07:20:49.379Z,18.97
2024-05-09T07:23:22.879Z,17.50
2024-05-09T07:25:49.867Z,21.63
2024-05-09T07:28:20.712Z,19.30
2024-05-09T07:30:47.810Z,18.23
2024-05-09T07:33:22.774Z,16.37
2024-05-09T07:35:51.228Z,14.40
2024-05-09T07:38:24.343Z,15.73
2024-05-09T07:40:51.442Z,13.50
2024-05-09T07:43:21.092Z,13.97
2024-05-09T07:45:53.162Z,19.07
2024-05-09T07:50:01.051Z,23.40
2024-05-09T07:53:51.341Z,14.00
2024-05-09T07:56:24.336Z,15.83
2024-05-09T07:58:53.049Z,17.83
2024-05-09T08:01:24.733Z,14.57
2024-05-09T08:03:53.260Z,15.77
2024-05-09T08:06:23.355Z,14.47
2024-05-09T08:08:53.073Z,12.80
2024-05-09T08:11:24.047Z,13.57
2024-05-09T08:13:51.403Z,11.27
2024-05-09T08:16:21.437Z,13.90
2024-05-09T08:18:48.798Z,14.03
2024-05-09T08:21:19.335Z,12.63
2024-05-09T08:23:46.435Z,12.67
2024-05-09T08:26:18.788Z,14.27
2024-05-09T08:28:46.450Z,15.13
2024-05-09T08:31:16.199Z,16.23
2024-05-09T08:33:48.237Z,15.43
2024-05-09T08:36:18.144Z,12.27
2024-05-09T08:38:45.235Z,12.67
2024-05-09T08:41:19.610Z,13.83
2024-05-09T08:43:47.672Z,14.90
2024-05-09T08:46:18.912Z,15.80
2024-05-09T08:48:48.188Z,13.50
2024-05-09T08:51:18.236Z,20.20
2024-05-09T08:53:45.608Z,15.30
2024-05-09T08:56:17.649Z,20.73
2024-05-09T08:58:49.956Z,12.53
2024-05-09T09:01:22.433Z,13.60
2024-05-09T09:03:51.533Z,12.10
2024-05-09T09:06:24.475Z,15.13
2024-05-09T09:08:52.499Z,15.20
2024-05-09T09:11:22.234Z,12.93
2024-05-09T09:13:51.982Z,11.80
2024-05-09T09:16:21.954Z,13.10
2024-05-09T09:18:54.218Z,10.60
2024-05-09T09:21:24.857Z,13.20
2024-05-09T09:23:52.589Z,15.30
2024-05-09T09:26:22.402Z,16.07
2024-05-09T09:28:54.722Z,11.90
2024-05-09T09:31:24.298Z,13.43
2024-05-09T09:33:52.377Z,9.33
2024-05-09T09:36:22.246Z,9.57
2024-05-09T09:38:51.953Z,11.43
2024-05-09T09:41:27.216Z,13.57
2024-05-09T09:43:57.928Z,9.07
2024-05-09T09:46:29.485Z,11.23
2024-05-09T09:48:56.797Z,7.30
2024-05-09T09:51:28.366Z,13.60
2024-05-09T09:53:59.434Z,8.40
2024-05-09T09:56:30.581Z,10.17
2024-05-09T09:59:07.031Z,8.07
2024-05-09T10:01:35.296Z,9.40
2024-05-09T10:04:07.054Z,12.53
2024-05-09T10:06:37.717Z,11.20
2024-05-09T10:09:07.810Z,9.50
2024-05-09T10:11:41.886Z,7.33
2024-05-09T10:14:23.201Z,7.57
2024-05-09T10:16:50.113Z,7.83
2024-05-09T10:19:27.947Z,7.30
2024-05-09T10:22:01.670Z,9.00
2024-05-09T10:24:31.541Z,10.63
2024-05-09T10:27:11.922Z,9.70
2024-05-09T10:29:54.415Z,9.17
2024-05-09T10:32:21.884Z,6.93
2024-05-09T10:35:04.575Z,7.37
2024-05-09T10:37:32.451Z,7.50
2024-05-09T10:40:05.469Z,7.77
2024-05-09T10:42:34.238Z,10.10
2024-05-09T10:45:06.806Z,5.80
2024-05-09T10:47:36.344Z,7.23
2024-05-09T10:50:15.696Z,7.60
2024-05-09T10:52:52.856Z,8.37
2024-05-09T10:55:22.710Z,7.20
2024-05-09T10:57:49.948Z,6.10
2024-05-09T11:00:27.834Z,10.23
2024-05-09T11:03:00.802Z,8.23
2024-05-09T11:05:30.772Z,7.83
2024-05-09T11:07:58.939Z,5.97
2024-05-09T11:10:33.772Z,8.17
2024-05-09T11:13:01.842Z,6.90
2024-05-09T11:15:43.100Z,8.00
2024-05-09T11:18:25.361Z,6.53
2024-05-09T11:20:57.077Z,8.10
2024-05-09T11:23:26.248Z,10.20
2024-05-09T11:25:59.615Z,6.23
2024-05-09T11:28:29.234Z,6.20
2024-05-09T11:31:11.258Z,11.00
2024-05-09T11:33:40.702Z,8.27
2024-05-09T11:36:11.670Z,6.90
2024-05-09T11:38:38.963Z,6.70
2024-05-09T11:41:09.341Z,8.83
2024-05-09T11:43:36.309Z,7.33
2024-05-09T11:46:06.218Z,7.27
2024-05-09T11:48:36.441Z,6.27
2024-05-09T11:51:06.427Z,5.47
2024-05-09T11:53:33.906Z,7.60
2024-05-09T11:56:07.538Z,10.70
2024-05-09T11:58:37.029Z,7.43
2024-05-09T12:01:07.409Z,7.30
2024-05-09T12:03:38.360Z,8.50
2024-05-09T12:06:09.149Z,6.20
2024-05-09T12:08:36.302Z,6.40
2024-05-09T12:11:06.389Z,6.60
2024-05-09T12:13:33.714Z,11.67
2024-05-09T12:16:03.882Z,10.43
2024-05-09T12:18:31.596Z,6.43
2024-05-09T12:21:04.060Z,6.10
2024-05-09T12:23:31.094Z,6.50
2024-05-09T12:26:01.080Z,4.83
2024-05-09T12:28:28.472Z,6.47
2024-05-09T12:30:58.205Z,5.83
2024-05-09T12:33:25.433Z,5.80
2024-05-09T12:35:55.748Z,6.13
2024-05-09T12:38:25.396Z,7.33
2024-05-09T12:40:55.502Z,8.13
2024-05-09T12:43:22.775Z,6.63
2024-05-09T12:45:52.707Z,6.87
2024-05-09T12:48:19.936Z,7.33
2024-05-09T12:50:49.791Z,6.50
2024-05-09T12:53:16.904Z,9.50
2024-05-09T12:55:56.624Z,6.00
2024-05-09T12:58:27.627Z,10.23
2024-05-09T13:00:57.655Z,5.50
2024-05-09T13:03:24.990Z,10.23
2024-05-09T13:05:54.958Z,6.03
2024-05-09T13:08:22.568Z,5.13
2024-05-09T13:10:54.960Z,5.43
2024-05-09T13:13:22.340Z,8.53
2024-05-09T13:15:52.354Z,6.63
2024-05-09T13:18:22.046Z,9.83
2024-05-09T13:20:49.215Z,7.43
2024-05-09T13:23:18.753Z,6.83
2024-05-09T13:25:46.293Z,6.43
2024-05-09T13:28:18.894Z,8.63
2024-05-09T13:30:46.643Z,6.13
2024-05-09T13:33:16.830Z,4.50
2024-05-09T13:35:47.682Z,9.27
2024-05-09T13:38:20.951Z,7.80
2024-05-09T13:40:49.038Z,6.67
2024-05-09T13:43:23.234Z,4.80
2024-05-09T13:45:50.550Z,4.93
2024-05-09T13:48:23.647Z,7.00
2024-05-09T13:50:50.779Z,7.20
2024-05-09T13:53:24.222Z,6.03
2024-05-09T13:55:51.465Z,6.30
2024-05-09T13:58:27.044Z,10.90
2024-05-09T14:00:54.306Z,10.70
2024-05-09T14:03:24.770Z,11.33
2024-05-09T14:05:54.073Z,8.70
2024-05-09T14:08:24.718Z,8.50
2024-05-09T14:10:52.566Z,6.53
2024-05-09T14:13:25.231Z,5.30
2024-05-09T14:15:52.668Z,6.17
2024-05-09T14:18:22.772Z,6.13
2024-05-09T14:20:50.285Z,8.10
2024-05-09T14:23:20.949Z,8.00
2024-05-09T14:25:51.746Z,6.63
2024-05-09T14:28:22.743Z,5.67
2024-05-09T14:30:53.419Z,5.90
2024-05-09T14:33:27.054Z,6.07
2024-05-09T14:35:54.491Z,6.27
2024-05-09T14:38:24.698Z,6.53
2024-05-09T14:40:52.198Z,6.63
2024-05-09T14:43:22.337Z,9.07
2024-05-09T14:45:49.677Z,7.03
2024-05-09T14:48:22.507Z,6.73
2024-05-09T14:50:50.280Z,6.20
2024-05-09T14:53:20.190Z,5.87
2024-05-09T14:55:49.477Z,7.93
2024-05-09T14:58:20.482Z,8.20
2024-05-09T15:00:50.401Z,9.80
2024-05-09T15:03:24.420Z,10.07
2024-05-09T15:05:52.495Z,5.63
2024-05-09T15:08:23.568Z,5.23
2024-05-09T15:10:51.306Z,5.43
2024-05-09T15:13:22.010Z,8.60
2024-05-09T15:15:49.258Z,6.83
2024-05-09T15:18:20.135Z,5.50
2024-05-09T15:20:49.980Z,9.93
2024-05-09T15:23:21.009Z,8.97
2024-05-09T15:25:48.079Z,4.90
2024-05-09T15:28:18.355Z,9.53
2024-05-09T15:30:46.995Z,6.53
2024-05-09T15:33:17.646Z,5.60
2024-05-09T15:35:46.675Z,7.90
2024-05-09T15:38:20.183Z,7.10
2024-05-09T15:40:47.491Z,6.77
2024-05-09T15:43:17.437Z,4.90
2024-05-09T15:45:45.688Z,6.00
2024-05-09T15:48:16.291Z,9.83
2024-05-09T15:50:43.676Z,6.40
2024-05-09T15:53:18.765Z,9.87
2024-05-09T15:55:49.463Z,9.30
2024-05-09T15:58:19.577Z,9.20
2024-05-09T16:00:48.808Z,7.00
2024-05-09T16:03:21.736Z,7.80
2024-05-09T16:05:50.608Z,7.77
2024-05-09T16:08:20.747Z,12.00
2024-05-09T16:10:51.208Z,6.63
2024-05-09T16:13:21.070Z,5.93
2024-05-09T16:15:48.696Z,8.63
2024-05-09T16:18:18.621Z,4.80
2024-05-09T16:20:48.292Z,17.53
2024-05-09T16:23:19.864Z,8.27
2024-05-09T16:25:51.523Z,6.63
2024-05-09T16:28:22.898Z,9.63
2024-05-09T16:30:51.240Z,4.80
2024-05-09T16:33:23.708Z,7.17
2024-05-09T16:35:50.763Z,8.67
2024-05-09T16:38:20.844Z,9.67
2024-05-09T16:40:50.796Z,6.57
2024-05-09T16:43:21.247Z,6.27
2024-05-09T16:45:48.466Z,6.70
2024-05-09T16:48:18.362Z,6.50
2024-05-09T16:50:45.390Z,7.33
2024-05-09T16:53:15.694Z,10.27
2024-05-09T16:55:42.999Z,9.93
2024-05-09T16:58:15.618Z,5.70
2024-05-09T17:00:44.037Z,12.03
2024-05-09T17:03:16.321Z,11.23
2024-05-09T17:05:45.703Z,6.27
2024-05-09T17:08:18.569Z,8.83
2024-05-09T17:10:46.225Z,6.70
2024-05-09T17:13:19.676Z,6.77
2024-05-09T17:15:50.354Z,8.23
2024-05-09T17:18:20.621Z,7.10
2024-05-09T17:20:49.342Z,7.10
2024-05-09T17:23:19.232Z,7.43
2024-05-09T17:25:46.492Z,11.17
2024-05-09T17:28:19.441Z,5.93
2024-05-09T17:30:46.717Z,8.80
2024-05-09T17:33:16.407Z,7.20
2024-05-09T17:35:46.069Z,7.90
2024-05-09T17:38:15.852Z,7.03
2024-05-09T17:40:42.980Z,5.80
2024-05-09T17:43:14.464Z,6.30
2024-05-09T17:45:44.200Z,7.37
2024-05-09T17:48:15.380Z,10.77
2024-05-09T17:50:45.150Z,7.97
2024-05-09T17:53:12.320Z,8.93
2024-05-09T17:55:43.115Z,5.97
2024-05-09T17:58:12.138Z,8.60
2024-05-09T18:00:42.744Z,9.50
2024-05-09T18:03:13.916Z,10.93
2024-05-09T18:05:45.324Z,7.53
2024-05-09T18:08:13.451Z,10.03
2024-05-09T18:10:44.351Z,12.27
2024-05-09T18:13:12.365Z,12.93
2024-05-09T18:15:42.753Z,7.20
2024-05-09T18:18:12.790Z,7.17
2024-05-09T18:20:45.459Z,14.93
2024-05-09T18:23:16.268Z,6.57
2024-05-09T18:25:48.116Z,9.50
2024-05-09T18:28:16.713Z,7.40
2024-05-09T18:30:47.156Z,9.17
2024-05-09T18:33:17.048Z,7.67
2024-05-09T18:35:48.091Z,9.13
2024-05-09T18:38:17.572Z,6.83
2024-05-09T18:40:49.231Z,10.20
2024-05-09T18:43:16.958Z,5.90
2024-05-09T18:45:47.517Z,7.30
2024-05-09T18:48:17.498Z,7.67
2024-05-09T18:50:47.605Z,14.77
2024-05-09T18:53:16.124Z,7.90
2024-05-09T18:55:45.722Z,7.27
2024-05-09T18:58:12.831Z,8.63
2024-05-09T19:00:45.367Z,12.23
2024-05-09T19:03:17.587Z,7.13
2024-05-09T19:05:48.084Z,9.90
2024-05-09T19:08:15.838Z,6.30
2024-05-09T19:10:46.239Z,7.60
2024-05-09T19:13:14.714Z,6.70
2024-05-09T19:15:45.283Z,5.37
2024-05-09T19:18:14.138Z,5.20
2024-05-09T19:20:47.320Z,5.47
2024-05-09T19:23:14.413Z,10.80
2024-05-09T19:25:43.970Z,5.53
2024-05-09T19:28:11.367Z,5.60
2024-05-09T19:30:42.819Z,7.40
2024-05-09T19:33:12.482Z,6.23
2024-05-09T19:35:43.271Z,6.93
2024-05-09T19:38:13.532Z,8.60
2024-05-09T19:40:43.333Z,8.20
2024-05-09T19:43:11.146Z,10.83
2024-05-09T19:45:40.978Z,8.40
2024-05-09T19:48:09.073Z,9.20
2024-05-09T19:50:43.182Z,7.27
2024-05-09T19:53:14.434Z,13.43
2024-05-09T19:55:44.551Z,10.90
2024-05-09T19:58:12.593Z,8.67
2024-05-09T20:00:44.160Z,8.73
2024-05-09T20:03:16.130Z,7.80
2024-05-09T20:05:45.899Z,9.60
2024-05-09T20:08:19.157Z,11.70
2024-05-09T20:10:46.302Z,8.53
2024-05-09T20:13:16.649Z,6.83
2024-05-09T20:15:43.854Z,6.30
2024-05-09T20:18:13.994Z,6.70
2024-05-09T20:20:43.625Z,6.97
2024-05-09T20:23:15.264Z,9.87
2024-05-09T20:25:45.009Z,11.70
2024-05-09T20:28:14.675Z,11.70
2024-05-09T20:30:42.094Z,12.60
2024-05-09T20:33:12.680Z,9.43
2024-05-09T20:35:40.273Z,13.47
2024-05-09T20:38:10.077Z,10.67
2024-05-09T20:40:39.190Z,12.33
2024-05-09T20:43:12.318Z,10.63
2024-05-09T20:45:40.736Z,12.23
2024-05-09T20:48:12.993Z,12.13
2024-05-09T20:50:42.436Z,9.50
2024-05-09T20:53:14.889Z,11.93
2024-05-09T20:55:43.388Z,9.40
2024-05-09T20:58:16.211Z,12.03
2024-05-09T21:00:45.750Z,9.23
2024-05-09T21:03:17.953Z,10.40
2024-05-09T21:05:46.399Z,9.10
2024-05-09T21:08:16.705Z,11.33
2024-05-09T21:10:43.926Z,9.77
2024-05-09T21:13:16.651Z,11.47
2024-05-09T21:15:43.986Z,10.03
2024-05-09T21:18:13.946Z,10.00
2024-05-09T21:20:41.049Z,10.13
2024-05-09T21:23:10.705Z,13.47
2024-05-09T21:25:37.684Z,12.93
2024-05-09T21:28:07.882Z,11.43
2024-05-09T21:30:41.841Z,8.50
2024-05-09T21:33:14.440Z,7.57
2024-05-09T21:35:42.577Z,11.93
2024-05-09T21:38:13.657Z,7.67
2024-05-09T21:40:41.176Z,9.93
2024-05-09T21:43:14.413Z,11.50
2024-05-09T21:45:45.188Z,7.60
2024-05-09T21:48:15.823Z,11.33
2024-05-09T21:50:43.022Z,10.87
2024-05-09T21:53:13.603Z,8.60
2024-05-09T21:55:41.435Z,10.20
2024-05-09T21:58:11.234Z,10.37
2024-05-09T22:00:39.631Z,9.10
2024-05-09T22:03:12.681Z,8.80
2024-05-09T22:05:43.601Z,12.00
2024-05-09T22:08:13.436Z,10.43
2024-05-09T22:10:40.649Z,9.50
2024-05-09T22:13:11.148Z,10.87
2024-05-09T22:15:40.236Z,12.47
2024-05-09T22:18:13.351Z,10.87
2024-05-09T22:20:45.193Z,10.00
2024-05-09T22:23:16.326Z,13.03
2024-05-09T22:25:43.380Z,8.83
2024-05-09T22:28:14.049Z,8.80
2024-05-09T22:30:41.424Z,8.53
2024-05-09T22:33:14.032Z,8.13
2024-05-09T22:35:41.684Z,9.70
2024-05-09T22:38:11.430Z,8.93
2024-05-09T22:40:46.693Z,9.30
2024-05-09T22:43:24.652Z,8.80
2024-05-09T22:45:53.178Z,9.73
2024-05-09T22:48:26.456Z,10.30
2024-05-09T22:50:53.736Z,10.93
2024-05-09T22:53:24.602Z,12.33
2024-05-09T22:55:51.706Z,9.03
2024-05-09T22:58:22.364Z,8.27
2024-05-09T23:00:49.749Z,10.53
2024-05-09T23:03:22.767Z,10.30
2024-05-09T23:05:53.022Z,14.77
2024-05-09T23:08:22.874Z,10.17
2024-05-09T23:10:50.140Z,8.27
2024-05-09T23:13:20.216Z,11.37
2024-05-09T23:15:47.547Z,13.90
2024-05-09T23:18:17.465Z,8.17
2024-05-09T23:20:44.734Z,12.63
2024-05-09T23:23:17.460Z,9.50
2024-05-09T23:25:44.668Z,9.40
2024-05-09T23:28:15.489Z,8.23
2024-05-09T23:30:42.789Z,10.30
2024-05-09T23:33:14.538Z,8.97
2024-05-09T23:35:44.449Z,10.87
2024-05-09T23:38:18.423Z,9.40
2024-05-09T23:40:46.711Z,9.97
2024-05-09T23:43:16.786Z,9.10
2024-05-09T23:45:43.912Z,10.47
2024-05-09T23:48:14.014Z,8.47
2024-05-09T23:50:41.803Z,10.03
2024-05-09T23:53:11.758Z,14.10
2024-05-09T23:55:41.389Z,7.27
2024-05-09T23:58:11.690Z,10.63
